Time;durP1;ratioP1;P1;durP2;ratioP2;P2;SDS_P1;SDS_P2;PMS_P1;PMS_P2;Temp;Humidity;BMP_temperature;BMP_pressure;BME280_temperature;BME280_humidity;BME280_pressure;Samples;Min_cycle;Max_cycle;Signal;HPM_P1;HPM_P2
2023/02/23 00:02:07;;;;;;;52.33;27.20;;;;;8.30;100714.00;;;;10040225;29;20238;-78
2023/02/23 00:07:09;;;;;;;43.07;26.47;;;;;8.30;100717.00;;;;10047736;29;20196;-78
2023/02/23 00:12:11;;;;;;;45.97;26.23;;;;;8.30;100713.00;;;;10014789;29;20205;-79
2023/02/23 00:17:16;;;;;;;45.83;26.63;;;;;8.30;100717.00;;;;10048839;29;20238;-78
2023/02/23 00:22:18;;;;;;;46.23;27.07;;;;;8.30;100710.00;;;;10011368;29;20212;-78
2023/02/23 00:27:20;;;;;;;45.83;26.77;;;;;8.30;100709.00;;;;10036449;29;20257;-78
2023/02/23 00:32:23;;;;;;;50.03;27.43;;;;;8.30;100705.00;;;;10026977;29;20751;-78
2023/02/23 00:37:25;;;;;;;48.07;27.03;;;;;8.30;100713.00;;;;10012222;29;20547;-79
2023/02/23 00:42:31;;;;;;;53.20;28.10;;;;;8.30;100708.00;;;;10037737;29;20257;-78
2023/02/23 00:47:35;;;;;;;53.43;26.63;;;;;8.30;100711.00;;;;9978227;29;20194;-79
2023/02/23 00:52:39;;;;;;;58.27;28.60;;;;;8.30;100713.00;;;;10020933;29;20221;-78
2023/02/23 00:57:41;;;;;;;59.30;28.17;;;;;8.20;100713.00;;;;10021194;29;20265;-78
2023/02/23 01:02:45;;;;;;;59.67;28.87;;;;;8.20;100712.00;;;;10005416;29;20245;-78
2023/02/23 01:07:48;;;;;;;54.90;28.37;;;;;8.20;100719.00;;;;10039745;29;20201;-78
2023/02/23 01:12:51;;;;;;;57.50;28.63;;;;;8.20;100719.00;;;;10023264;29;20209;-78
2023/02/23 01:17:53;;;;;;;53.20;27.90;;;;;8.20;100709.00;;;;10064998;29;20249;-79
2023/02/23 01:22:55;;;;;;;57.40;28.73;;;;;8.20;100715.00;;;;10029541;29;20216;-78
2023/02/23 01:27:56;;;;;;;56.57;28.87;;;;;8.20;100644.00;;;;9997247;29;20225;-78
2023/02/23 01:32:59;;;;;;;52.87;28.80;;;;;8.20;100654.00;;;;10004819;29;20205;-78
2023/02/23 01:38:02;;;;;;;48.80;27.80;;;;;8.20;100651.00;;;;10048941;29;20214;-78
2023/02/23 01:43:16;;;;;;;48.30;27.23;;;;;8.20;100661.00;;;;10009952;29;20213;-79
2023/02/23 01:48:22;;;;;;;54.00;28.73;;;;;8.20;100680.00;;;;10020119;29;20235;-78
2023/02/23 01:53:28;;;;;;;46.00;26.10;;;;;8.20;100681.00;;;;10010082;29;20223;-79
2023/02/23 01:58:32;;;;;;;48.27;26.87;;;;;8.20;100690.00;;;;10016390;29;20215;-79
2023/02/23 02:03:42;;;;;;;47.43;25.60;;;;;8.20;100712.00;;;;10963155;24;20192;-77
2023/02/23 02:08:49;;;;;;;45.93;25.07;;;;;8.20;100714.00;;;;10032559;29;20217;-77
2023/02/23 02:13:57;;;;;;;48.33;25.70;;;;;8.20;100715.00;;;;10023349;29;20331;-78
2023/02/23 02:19:19;;;;;;;47.13;25.00;;;;;8.10;100721.00;;;;10032569;29;20219;-78
2023/02/23 02:24:35;;;;;;;52.73;26.50;;;;;8.10;100729.00;;;;10026019;29;20625;-78
2023/02/23 02:30:11;;;;;;;50.97;26.90;;;;;8.00;100720.00;;;;10050774;29;20188;-78
2023/02/23 02:35:50;;;;;;;47.87;26.30;;;;;8.00;100718.00;;;;10037884;29;20248;-78
2023/02/23 02:41:16;;;;;;;46.47;25.07;;;;;8.00;100726.00;;;;10006792;29;20640;-78
2023/02/23 02:46:25;;;;;;;57.20;28.07;;;;;8.00;100729.00;;;;10017448;29;20250;-77
2023/02/23 02:51:54;;;;;;;65.30;28.50;;;;;7.90;100725.00;;;;10026559;29;20246;-77
2023/02/23 02:57:01;;;;;;;62.27;28.03;;;;;7.90;100724.00;;;;10056326;29;20209;-78
2023/02/23 04:19:26;;;;;;;76.50;29.23;;;;;7.60;100761.00;;;;10022461;29;20261;-77
2023/02/23 04:24:28;;;;;;;83.70;28.67;;;;;7.60;100766.00;;;;10011117;29;20201;-78
2023/02/23 04:29:31;;;;;;;76.03;28.60;;;;;7.60;100774.00;;;;10038145;29;20557;-77
2023/02/23 04:34:33;;;;;;;76.23;29.63;;;;;7.60;100776.00;;;;10049849;29;20202;-78
2023/02/23 04:39:35;;;;;;;79.33;30.27;;;;;7.50;100777.00;;;;10024551;29;20741;-78
2023/02/23 04:44:37;;;;;;;83.43;32.03;;;;;7.50;100765.00;;;;10043199;29;20200;-78
2023/02/23 04:49:39;;;;;;;88.07;33.17;;;;;7.50;100774.00;;;;10008054;29;20197;-78
2023/02/23 04:54:42;;;;;;;86.63;32.60;;;;;7.50;100774.00;;;;10023434;29;20205;-78
2023/02/23 04:59:44;;;;;;;90.20;34.47;;;;;7.50;100777.00;;;;10048248;29;20299;-78
2023/02/23 05:04:46;;;;;;;87.87;32.77;;;;;7.50;100785.00;;;;10006797;29;20780;-78
2023/02/23 05:09:48;;;;;;;82.90;32.07;;;;;7.40;100784.00;;;;10022366;29;20689;-77
2023/02/23 05:14:50;;;;;;;77.20;32.33;;;;;7.40;100791.00;;;;10007880;29;20207;-78
2023/02/23 05:19:52;;;;;;;89.93;33.47;;;;;7.40;100785.00;;;;10013726;29;20209;-77
2023/02/23 05:24:54;;;;;;;86.47;33.73;;;;;7.50;100782.00;;;;10038424;29;20209;-78
2023/02/23 05:29:58;;;;;;;79.23;31.43;;;;;7.50;100796.00;;;;10031568;29;20568;-77
2023/02/23 05:35:01;;;;;;;86.27;33.07;;;;;7.50;100802.00;;;;10034233;29;20747;-78
2023/02/23 05:40:04;;;;;;;79.07;31.50;;;;;7.40;100799.00;;;;10016864;29;20700;-77
2023/02/23 05:45:06;;;;;;;91.60;33.57;;;;;7.50;100796.00;;;;10034938;29;20204;-78
2023/02/23 05:50:10;;;;;;;72.17;30.27;;;;;7.50;100813.00;;;;10043448;29;20200;-77
2023/02/23 05:55:12;;;;;;;100.47;34.07;;;;;7.50;100809.00;;;;10048530;29;20850;-78
2023/02/23 06:00:14;;;;;;;93.90;33.33;;;;;7.50;100819.00;;;;10042308;29;20216;-78
2023/02/23 06:05:17;;;;;;;82.43;32.23;;;;;7.40;100814.00;;;;10034963;29;20237;-79
2023/02/23 06:10:19;;;;;;;88.47;34.33;;;;;7.50;100809.00;;;;10025941;29;20276;-78
2023/02/23 06:15:21;;;;;;;82.70;30.73;;;;;7.50;100816.00;;;;10023038;29;20259;-78
2023/02/23 06:20:22;;;;;;;92.03;32.90;;;;;7.50;100809.00;;;;10058928;29;20217;-77
2023/02/23 06:25:25;;;;;;;85.30;30.53;;;;;7.50;100820.00;;;;10045324;29;20209;-78
2023/02/23 06:30:27;;;;;;;87.27;31.77;;;;;7.50;100825.00;;;;10037559;29;20336;-77
2023/02/23 06:35:29;;;;;;;91.27;33.33;;;;;7.50;100831.00;;;;10040428;29;20197;-78
2023/02/23 06:40:32;;;;;;;91.27;32.33;;;;;7.40;100822.00;;;;10035060;29;20213;-77
2023/02/23 06:45:34;;;;;;;82.67;31.80;;;;;7.50;100830.00;;;;10022438;29;20231;-78
2023/02/23 06:50:36;;;;;;;96.30;32.87;;;;;7.50;100834.00;;;;10039526;29;20196;-78
2023/02/23 06:55:38;;;;;;;95.30;32.37;;;;;7.50;100836.00;;;;10032818;29;20379;-78
2023/02/23 07:00:42;;;;;;;88.63;31.43;;;;;7.50;100846.00;;;;10055091;29;20669;-78
2023/02/23 07:05:44;;;;;;;90.00;31.03;;;;;7.60;100864.00;;;;10026587;29;20253;-77
2023/02/23 07:10:47;;;;;;;84.97;31.83;;;;;7.60;100868.00;;;;10040938;29;20256;-78
2023/02/23 07:15:49;;;;;;;91.43;31.30;;;;;7.70;100875.00;;;;10029827;29;20280;-78
2023/02/23 07:20:51;;;;;;;81.67;30.23;;;;;7.80;100891.00;;;;10041807;29;20209;-78
2023/02/23 07:25:59;;;;;;;85.57;30.17;;;;;7.90;100894.00;;;;10025897;29;20228;-79
2023/02/23 07:31:01;;;;;;;91.00;32.10;;;;;7.90;100909.00;;;;10006208;29;20282;-77
2023/02/23 07:36:03;;;;;;;91.70;31.23;;;;;8.00;100905.00;;;;10011527;29;20929;-78
2023/02/23 07:41:05;;;;;;;93.30;32.30;;;;;8.00;100912.00;;;;10028946;29;20300;-79
2023/02/23 07:46:07;;;;;;;94.53;32.53;;;;;8.00;100919.00;;;;10024991;29;20694;-80
2023/02/23 07:51:14;;;;;;;91.47;30.83;;;;;8.00;100929.00;;;;10052168;29;20273;-79
2023/02/23 07:56:17;;;;;;;88.73;32.13;;;;;7.90;100941.00;;;;10032775;29;20249;-79
2023/02/23 08:01:19;;;;;;;99.30;34.17;;;;;7.90;100950.00;;;;10044096;29;20213;-79
2023/02/23 08:06:21;;;;;;;86.00;32.17;;;;;7.90;100956.00;;;;10037831;29;20233;-79
2023/02/23 08:11:23;;;;;;;91.33;33.30;;;;;8.00;100956.00;;;;10017165;29;20186;-79
2023/02/23 08:16:30;;;;;;;95.90;34.47;;;;;8.10;100966.00;;;;10018455;29;20847;-80
2023/02/23 08:21:32;;;;;;;99.17;32.93;;;;;8.10;100972.00;;;;10023275;29;20201;-79
2023/02/23 08:26:36;;;;;;;93.80;33.40;;;;;8.10;100983.00;;;;10033863;29;20266;-79
2023/02/23 08:31:38;;;;;;;94.83;33.53;;;;;8.20;100985.00;;;;10010165;29;20233;-79
2023/02/23 08:36:41;;;;;;;98.53;33.90;;;;;8.40;100969.00;;;;10039110;29;20681;-79
2023/02/23 08:41:46;;;;;;;94.60;33.07;;;;;8.60;100975.00;;;;10030775;29;20205;-79
2023/02/23 08:46:48;;;;;;;91.57;35.60;;;;;8.60;100977.00;;;;10018469;29;20213;-78
2023/02/23 08:51:51;;;;;;;88.73;32.67;;;;;8.60;100996.00;;;;10040448;29;20197;-80
2023/02/23 08:56:56;;;;;;;96.77;34.93;;;;;8.70;100997.00;;;;10048574;29;20673;-79
2023/02/23 09:01:59;;;;;;;100.27;37.90;;;;;8.90;100997.00;;;;9992329;29;20218;-79
2023/02/23 09:07:01;;;;;;;106.00;38.27;;;;;9.10;101003.00;;;;10043199;29;20243;-79
2023/02/23 09:12:04;;;;;;;105.97;38.80;;;;;9.00;101005.00;;;;10025332;29;20216;-79
2023/02/23 09:17:06;;;;;;;101.50;39.67;;;;;9.00;101002.00;;;;10024279;29;20204;-80
2023/02/23 09:22:08;;;;;;;98.30;38.53;;;;;9.10;101012.00;;;;10037102;29;20213;-79
2023/02/23 09:27:11;;;;;;;90.57;36.33;;;;;9.10;101020.00;;;;10033636;29;20224;-79
2023/02/23 09:32:13;;;;;;;107.63;37.27;;;;;9.10;101028.00;;;;10033115;29;20412;-79
2023/02/23 09:37:15;;;;;;;107.97;40.10;;;;;9.20;101030.00;;;;10024475;29;20212;-79
2023/02/23 09:42:27;;;;;;;119.83;40.00;;;;;9.20;101025.00;;;;10019309;29;20261;-79
2023/02/23 09:47:39;;;;;;;106.57;40.87;;;;;9.20;101035.00;;;;10015599;29;20204;-79
2023/02/23 09:52:44;;;;;;;115.83;41.80;;;;;9.20;101048.00;;;;10036596;29;20257;-79
2023/02/23 09:57:48;;;;;;;119.23;40.20;;;;;9.10;101046.00;;;;10019590;29;20201;-79
2023/02/23 10:03:30;;;;;;;114.20;40.07;;;;;9.00;101052.00;;;;10041621;29;20197;-78
2023/02/23 10:08:47;;;;;;;91.77;35.37;;;;;8.90;101035.00;;;;10020850;29;20205;-79
2023/02/23 10:14:03;;;;;;;120.63;42.83;;;;;8.90;101037.00;;;;10024468;29;20789;-79
2023/02/23 10:19:11;;;;;;;124.20;41.53;;;;;9.40;101035.00;;;;10035675;29;20235;-78
2023/02/23 10:24:21;;;;;;;120.67;43.60;;;;;10.10;101041.00;;;;10034182;29;20686;-78
2023/02/23 10:29:31;;;;;;;118.93;43.40;;;;;10.40;101035.00;;;;10019035;29;20205;-79
2023/02/23 10:34:35;;;;;;;105.60;40.77;;;;;10.70;101040.00;;;;10020087;29;20201;-79
2023/02/23 10:39:40;;;;;;;100.17;39.50;;;;;11.10;101046.00;;;;10027213;29;20572;-78
2023/02/23 10:44:45;;;;;;;108.23;39.83;;;;;11.90;101042.00;;;;10038621;29;20292;-78
2023/02/23 10:49:50;;;;;;;90.83;37.77;;;;;12.30;101041.00;;;;10028320;29;20201;-79
2023/02/23 10:54:52;;;;;;;80.23;34.00;;;;;12.30;101051.00;;;;10023040;29;20764;-79
2023/02/23 11:00:15;;;;;;;72.50;31.00;;;;;12.20;101040.00;;;;10038714;29;20221;-79
2023/02/23 11:05:42;;;;;;;59.17;28.57;;;;;12.10;101049.00;;;;10040721;29;20224;-79
2023/02/23 11:10:55;;;;;;;68.83;31.30;;;;;11.80;101055.00;;;;10025370;29;20851;-78
2023/02/23 11:16:18;;;;;;;73.20;31.97;;;;;12.00;101055.00;;;;10046692;29;20699;-78
2023/02/23 11:21:28;;;;;;;56.57;28.30;;;;;11.70;101073.00;;;;10008753;29;20231;-79
2023/02/23 11:26:36;;;;;;;66.93;31.40;;;;;11.40;101066.00;;;;10022808;29;20193;-78
2023/02/23 11:31:39;;;;;;;66.93;30.97;;;;;11.60;101059.00;;;;10033023;29;20193;-79
2023/02/23 11:36:41;;;;;;;64.33;30.23;;;;;11.70;101062.00;;;;10013620;29;20205;-78
2023/02/23 11:41:43;;;;;;;58.60;27.83;;;;;11.50;101050.00;;;;10024663;29;20245;-77
2023/02/23 11:46:45;;;;;;;68.07;30.70;;;;;11.20;101039.00;;;;9992452;29;20225;-77
2023/02/23 11:51:50;;;;;;;68.80;31.13;;;;;10.70;101042.00;;;;10059386;29;20682;-78
2023/02/23 11:56:54;;;;;;;67.27;31.40;;;;;10.40;101040.00;;;;10030364;29;20203;-77
2023/02/23 12:02:05;;;;;;;80.90;34.63;;;;;10.30;101046.00;;;;10062468;29;20269;-77
2023/02/23 12:07:37;;;;;;;82.13;33.60;;;;;10.40;101045.00;;;;10033122;29;20292;-78
2023/02/23 12:12:50;;;;;;;80.63;33.40;;;;;10.60;101051.00;;;;10037186;29;20873;-77
2023/02/23 12:17:59;;;;;;;77.30;32.90;;;;;10.80;101040.00;;;;9986540;29;20206;-77
2023/02/23 12:23:09;;;;;;;73.97;34.10;;;;;11.50;101034.00;;;;10041404;29;20202;-77
2023/02/23 12:28:38;;;;;;;73.97;34.50;;;;;11.80;101033.00;;;;10024562;29;20417;-77
2023/02/23 12:33:47;;;;;;;72.80;32.00;;;;;11.80;101042.00;;;;10019051;29;20228;-78
2023/02/23 12:39:29;;;;;;;63.47;30.20;;;;;11.90;101045.00;;;;10039428;29;20236;-77
2023/02/23 12:44:41;;;;;;;60.87;31.70;;;;;11.90;101043.00;;;;10041637;29;20229;-77
2023/02/23 12:49:56;;;;;;;61.60;30.27;;;;;11.80;101041.00;;;;10023339;29;20197;-77
2023/02/23 12:54:58;;;;;;;63.63;30.77;;;;;11.50;101041.00;;;;10023934;29;20877;-77
2023/02/23 13:00:38;;;;;;;69.33;31.87;;;;;11.10;101033.00;;;;10031338;29;20214;-77
2023/02/23 13:05:47;;;;;;;66.17;31.43;;;;;10.90;101053.00;;;;9988701;29;20216;-77
2023/02/23 13:10:54;;;;;;;67.47;32.50;;;;;11.00;101044.00;;;;10038346;29;20192;-77
2023/02/23 13:16:00;;;;;;;71.43;32.73;;;;;11.00;101043.00;;;;10001989;29;20292;-77
2023/02/23 13:21:54;;;;;;;65.60;31.27;;;;;10.80;101039.00;;;;10001491;29;20216;-78
2023/02/23 13:27:32;;;;;;;60.27;30.67;;;;;10.40;101046.00;;;;9989083;29;20204;-78
2023/02/23 13:32:36;;;;;;;68.17;30.97;;;;;10.10;101045.00;;;;9978636;29;20232;-77
2023/02/23 13:37:53;;;;;;;75.83;35.10;;;;;10.00;101041.00;;;;10012924;29;20206;-77
2023/02/23 13:43:01;;;;;;;72.60;33.20;;;;;9.90;101049.00;;;;10047171;29;20416;-78
2023/02/23 13:48:31;;;;;;;65.30;32.53;;;;;9.80;101050.00;;;;10007071;29;20201;-77
2023/02/23 13:53:33;;;;;;;62.90;29.60;;;;;9.80;101045.00;;;;10016213;29;20657;-76
2023/02/23 13:58:36;;;;;;;65.43;32.10;;;;;9.90;101047.00;;;;10042620;29;20676;-77
2023/02/23 14:03:52;;;;;;;55.83;25.33;;;;;9.90;101042.00;;;;10007341;29;20261;-78
2023/02/23 14:09:10;;;;;;;45.03;21.13;;;;;10.10;101041.00;;;;10009206;29;20219;-78
2023/02/23 14:14:26;;;;;;;45.80;19.20;;;;;10.10;101044.00;;;;10018611;29;20235;-77
2023/02/23 14:19:36;;;;;;;41.20;19.10;;;;;10.10;101046.00;;;;10044015;29;20212;-78
2023/02/23 14:24:38;;;;;;;44.27;19.73;;;;;10.10;101049.00;;;;10021565;29;20201;-77
2023/02/23 14:29:43;;;;;;;41.37;19.03;;;;;10.10;101047.00;;;;10045295;29;20248;-77
2023/02/23 14:34:52;;;;;;;42.27;20.07;;;;;10.20;101054.00;;;;10047373;29;20201;-77
2023/02/23 14:40:16;;;;;;;45.63;20.37;;;;;10.60;101046.00;;;;10038965;29;20212;-78
2023/02/23 14:45:25;;;;;;;46.33;21.47;;;;;10.80;101047.00;;;;10001231;29;20296;-77
2023/02/23 14:50:31;;;;;;;38.87;17.60;;;;;11.20;101065.00;;;;10019451;29;20237;-78
2023/02/23 14:55:36;;;;;;;45.97;20.63;;;;;11.50;101058.00;;;;10017031;29;20296;-77
2023/02/23 15:00:41;;;;;;;43.47;20.00;;;;;11.60;101067.00;;;;10044756;29;20244;-77
2023/02/23 15:05:55;;;;;;;42.27;21.83;;;;;11.40;101073.00;;;;10027949;29;20217;-77
2023/02/23 15:11:21;;;;;;;61.57;22.63;;;;;11.20;101076.00;;;;10024941;29;20204;-76
2023/02/23 15:16:29;;;;;;;48.60;20.23;;;;;11.20;101073.00;;;;10034284;29;20676;-78
2023/02/23 15:21:34;;;;;;;34.57;17.53;;;;;11.10;101079.00;;;;10011795;29;20700;-78
2023/02/23 15:26:39;;;;;;;28.43;15.57;;;;;11.00;101067.00;;;;10028097;29;20310;-77
2023/02/23 15:31:51;;;;;;;31.87;15.37;;;;;10.80;101068.00;;;;10027462;29;20228;-77
2023/02/23 15:37:09;;;;;;;30.40;16.37;;;;;10.50;101075.00;;;;10027542;29;20664;-77
2023/02/23 15:42:21;;;;;;;30.63;15.13;;;;;10.10;101063.00;;;;10019976;29;20214;-77
2023/02/23 15:47:27;;;;;;;27.13;15.00;;;;;10.10;101067.00;;;;10016366;29;20632;-77
2023/02/23 15:52:31;;;;;;;26.57;14.77;;;;;10.00;101067.00;;;;10042182;29;20204;-78
2023/02/23 15:57:46;;;;;;;31.40;14.90;;;;;10.00;101065.00;;;;10029104;29;20201;-78
2023/02/23 16:02:48;;;;;;;25.70;13.90;;;;;10.00;101062.00;;;;10050366;29;20213;-77
2023/02/23 16:08:21;;;;;;;23.23;14.03;;;;;10.00;101059.00;;;;10023785;29;20264;-76
2023/02/23 16:13:24;;;;;;;17.77;11.83;;;;;9.90;101062.00;;;;10041373;29;20257;-77
2023/02/23 16:18:39;;;;;;;18.87;12.53;;;;;9.90;101065.00;;;;10041328;29;20201;-77
2023/02/23 16:23:46;;;;;;;19.83;13.10;;;;;9.90;101059.00;;;;10009376;29;20679;-78
2023/02/23 16:28:55;;;;;;;21.50;13.07;;;;;9.80;101062.00;;;;10040903;29;20205;-78
2023/02/23 16:33:58;;;;;;;19.67;13.03;;;;;9.80;101066.00;;;;10025501;29;20237;-77
2023/02/23 16:39:05;;;;;;;20.40;12.83;;;;;9.70;101067.00;;;;10024312;29;20277;-77
2023/02/23 16:44:15;;;;;;;19.07;12.53;;;;;9.60;101065.00;;;;10011679;29;20712;-77
2023/02/23 16:49:17;;;;;;;20.33;13.73;;;;;9.50;101079.00;;;;10024903;29;20181;-77
2023/02/23 16:54:19;;;;;;;18.83;13.27;;;;;9.30;101063.00;;;;10050259;29;20193;-78
2023/02/23 16:59:22;;;;;;;18.70;13.07;;;;;9.30;101074.00;;;;10050898;29;20856;-77
2023/02/23 17:04:24;;;;;;;20.37;13.07;;;;;9.20;101074.00;;;;10016422;29;20233;-77
2023/02/23 17:09:26;;;;;;;19.20;12.50;;;;;9.10;101077.00;;;;10018903;29;20292;-77
2023/02/23 17:14:30;;;;;;;19.00;12.50;;;;;9.00;101072.00;;;;10033659;29;20287;-78
2023/02/23 17:19:32;;;;;;;21.60;13.23;;;;;8.90;101081.00;;;;10047880;29;20213;-79
2023/02/23 17:24:34;;;;;;;19.50;13.50;;;;;8.90;101079.00;;;;10040374;29;20220;-78
2023/02/23 17:29:36;;;;;;;17.83;12.07;;;;;8.90;101076.00;;;;10027191;29;20193;-78
2023/02/23 17:34:39;;;;;;;20.93;13.10;;;;;8.80;101084.00;;;;10016584;29;20249;-78
2023/02/23 17:39:41;;;;;;;17.70;11.13;;;;;8.80;101095.00;;;;10044831;29;20212;-78
2023/02/23 17:44:43;;;;;;;18.10;11.50;;;;;8.80;101091.00;;;;10027396;29;20194;-78
2023/02/23 17:49:45;;;;;;;22.73;12.10;;;;;8.70;101094.00;;;;10018476;29;20427;-79
2023/02/23 17:54:47;;;;;;;17.13;11.30;;;;;8.70;101093.00;;;;10011408;29;20197;-79
2023/02/23 17:59:49;;;;;;;21.33;14.13;;;;;8.60;101095.00;;;;10028753;29;20226;-79
2023/02/23 18:04:52;;;;;;;23.83;13.70;;;;;8.60;101095.00;;;;10022057;29;20239;-78
2023/02/23 18:09:54;;;;;;;27.30;16.97;;;;;8.50;101104.00;;;;10022430;29;20546;-78
2023/02/23 18:14:56;;;;;;;29.37;19.67;;;;;8.50;101105.00;;;;10038294;29;20700;-78
2023/02/23 18:19:59;;;;;;;27.13;19.03;;;;;8.50;101118.00;;;;10006116;29;20265;-78
2023/02/23 18:25:01;;;;;;;25.37;16.97;;;;;8.50;101111.00;;;;10037521;29;20669;-78
2023/02/23 18:30:04;;;;;;;27.10;16.97;;;;;8.40;101114.00;;;;10021282;29;20201;-78
2023/02/23 18:35:06;;;;;;;24.57;16.50;;;;;8.40;101112.00;;;;10035732;29;20213;-79
2023/02/23 18:40:19;;;;;;;23.13;14.40;;;;;8.40;101109.00;;;;10011253;29;20217;-78
2023/02/23 18:45:22;;;;;;;24.03;15.87;;;;;8.40;101109.00;;;;10023203;29;20201;-78
2023/02/23 18:50:25;;;;;;;19.10;12.50;;;;;8.40;101106.00;;;;10003236;29;20246;-78
2023/02/23 18:55:27;;;;;;;17.33;11.60;;;;;8.40;101110.00;;;;10036295;29;20197;-78
2023/02/23 19:00:32;;;;;;;19.43;12.73;;;;;8.30;101116.00;;;;10019817;29;20216;-78
2023/02/23 19:05:36;;;;;;;19.50;13.30;;;;;8.30;101110.00;;;;10004826;29;20296;-78
2023/02/23 19:10:39;;;;;;;22.13;13.17;;;;;8.30;101108.00;;;;10026188;29;20208;-78
2023/02/23 19:15:42;;;;;;;23.23;14.07;;;;;8.30;101092.00;;;;10026854;29;20255;-80
2023/02/23 19:20:45;;;;;;;21.10;12.33;;;;;8.30;101103.00;;;;10052236;29;20872;-78
2023/02/23 19:25:48;;;;;;;24.10;13.90;;;;;8.30;101109.00;;;;10033937;29;20201;-78
2023/02/23 19:31:09;;;;;;;25.73;13.80;;;;;8.30;101102.00;;;;10013357;29;20234;-78
2023/02/23 19:36:14;;;;;;;29.57;14.80;;;;;8.20;101106.00;;;;10013236;29;20197;-79
2023/02/23 19:41:20;;;;;;;27.10;14.87;;;;;8.30;101114.00;;;;10037766;29;20205;-78
2023/02/23 19:46:24;;;;;;;32.50;14.13;;;;;8.20;101095.00;;;;10019320;29;20332;-78
2023/02/23 19:51:26;;;;;;;21.87;13.03;;;;;8.20;101083.00;;;;10018551;29;20276;-79
2023/02/23 19:56:29;;;;;;;23.27;12.23;;;;;8.20;101095.00;;;;10037819;29;20722;-79
2023/02/23 20:01:31;;;;;;;21.20;12.90;;;;;8.10;101103.00;;;;10019221;29;20221;-79
2023/02/23 20:06:39;;;;;;;26.73;15.40;;;;;8.10;101106.00;;;;10012840;29;20225;-79
2023/02/23 20:11:41;;;;;;;26.17;14.80;;;;;8.10;101113.00;;;;10002761;29;20217;-79
2023/02/23 20:16:44;;;;;;;21.07;12.53;;;;;8.10;101121.00;;;;10017818;29;20233;-79
2023/02/23 20:21:48;;;;;;;21.10;13.13;;;;;8.10;101124.00;;;;10026081;29;20221;-78
2023/02/23 20:26:55;;;;;;;23.83;13.00;;;;;8.10;101127.00;;;;10036328;29;20205;-79
2023/02/23 20:31:58;;;;;;;25.73;12.50;;;;;8.00;101127.00;;;;10028436;29;20333;-79
2023/02/23 20:37:03;;;;;;;22.57;11.27;;;;;7.90;101130.00;;;;10012776;29;20209;-79
2023/02/23 20:42:05;;;;;;;18.53;9.27;;;;;7.80;101137.00;;;;10018296;29;20338;-80
2023/02/23 20:47:08;;;;;;;15.30;6.27;;;;;7.60;101144.00;;;;10035513;29;20221;-79
2023/02/23 20:52:11;;;;;;;11.60;5.30;;;;;7.50;101143.00;;;;10016874;29;20193;-78
2023/02/23 20:57:13;;;;;;;13.30;5.20;;;;;7.40;101143.00;;;;10048876;29;20204;-78
2023/02/23 21:02:16;;;;;;;15.30;6.00;;;;;7.30;101136.00;;;;10018994;29;20641;-78
2023/02/23 21:07:24;;;;;;;15.30;6.17;;;;;7.20;101141.00;;;;10030490;29;20925;-78
2023/02/23 21:12:26;;;;;;;21.10;6.70;;;;;7.20;101138.00;;;;10045193;29;20272;-78
2023/02/23 21:17:28;;;;;;;17.37;6.17;;;;;7.10;101140.00;;;;10015456;29;20208;-79
2023/02/23 21:22:31;;;;;;;17.90;5.67;;;;;7.10;101137.00;;;;10014783;29;20205;-79
2023/02/23 21:27:33;;;;;;;17.20;5.80;;;;;7.00;101143.00;;;;10012420;29;20200;-78
2023/02/23 21:32:39;;;;;;;17.33;6.00;;;;;6.90;101139.00;;;;10002495;29;20199;-78
2023/02/23 21:37:42;;;;;;;22.77;6.03;;;;;6.80;101132.00;;;;10036605;29;20213;-78
2023/02/23 21:42:44;;;;;;;17.53;6.73;;;;;6.80;101137.00;;;;10027540;29;20213;-78
2023/02/23 21:47:47;;;;;;;17.27;6.07;;;;;6.70;101134.00;;;;10019140;29;20205;-77
2023/02/23 21:52:52;;;;;;;18.83;6.20;;;;;6.70;101127.00;;;;10016943;29;20196;-78
2023/02/23 21:57:57;;;;;;;26.77;5.83;;;;;6.70;101129.00;;;;10034104;29;20212;-77
2023/02/23 22:02:59;;;;;;;24.40;6.73;;;;;6.70;101129.00;;;;10025181;29;20236;-78
2023/02/23 22:08:01;;;;;;;16.33;6.20;;;;;6.70;101126.00;;;;10028052;29;20225;-78
2023/02/23 22:13:03;;;;;;;25.60;6.47;;;;;6.60;101129.00;;;;10001110;29;21135;-78
2023/02/23 22:18:05;;;;;;;23.03;5.97;;;;;6.50;101119.00;;;;10032581;29;20209;-78
2023/02/23 22:23:08;;;;;;;21.60;5.57;;;;;6.50;101118.00;;;;10018683;29;20217;-78
2023/02/23 22:28:10;;;;;;;18.87;5.00;;;;;6.50;101113.00;;;;10040259;29;20653;-78
2023/02/23 22:33:12;;;;;;;13.53;5.03;;;;;6.40;101119.00;;;;10033997;29;20197;-78
2023/02/23 22:38:17;;;;;;;19.53;4.50;;;;;6.40;101119.00;;;;10021964;29;20205;-78
2023/02/23 22:43:22;;;;;;;17.10;3.47;;;;;6.30;101121.00;;;;10058356;29;20208;-78
2023/02/23 22:48:27;;;;;;;15.20;3.10;;;;;6.20;101121.00;;;;10027615;29;20201;-78
2023/02/23 22:53:29;;;;;;;19.00;3.37;;;;;6.00;101116.00;;;;10039119;29;20301;-78
2023/02/23 22:58:31;;;;;;;9.07;3.73;;;;;5.90;101124.00;;;;10056511;29;20193;-78
2023/02/23 23:03:40;;;;;;;12.43;2.73;;;;;5.70;101119.00;;;;10030401;29;20583;-78
2023/02/23 23:08:44;;;;;;;11.07;2.47;;;;;5.60;101128.00;;;;10030536;29;20241;-78
2023/02/23 23:13:48;;;;;;;18.07;3.20;;;;;5.60;101114.00;;;;10048721;29;20265;-78
2023/02/23 23:18:55;;;;;;;14.47;2.80;;;;;5.50;101120.00;;;;10014949;29;20942;-78
2023/02/23 23:23:58;;;;;;;19.67;3.67;;;;;5.40;101114.00;;;;10042499;29;20577;-77
2023/02/23 23:29:05;;;;;;;18.93;3.93;;;;;5.40;101109.00;;;;10034512;29;20201;-78
2023/02/23 23:34:10;;;;;;;15.53;3.43;;;;;5.40;101113.00;;;;10025368;29;20197;-78
2023/02/23 23:39:14;;;;;;;15.70;3.30;;;;;5.40;101109.00;;;;10025610;29;20193;-78
2023/02/23 23:44:27;;;;;;;15.90;3.37;;;;;5.40;101099.00;;;;10024987;29;20213;-78
2023/02/23 23:49:38;;;;;;;26.97;3.63;;;;;5.30;101089.00;;;;10040236;29;20189;-77
2023/02/23 23:54:41;;;;;;;12.47;3.27;;;;;5.30;101088.00;;;;10026907;29;20197;-78
2023/02/23 23:59:44;;;;;;;17.50;3.23;;;;;5.30;101080.00;;;;10040488;29;20201;-78
